• Join FlightAware (Why Join?)
  • Login
  • US Flag 
02:16PM EDT


 

Airport Tracker/Info


-or-


 

Live Flight TrackerFlight Track Log ✈ EJA829P ✈ 25-Mar-2014 ✈ KTEB - KERI

Flight Track Log - Related Links

Times and Time Zones

All times are in EDT time to prevent confusion due to time zone crossing. See the EJA829P flight status page for this flight to view local times or setup timezone preferences in your user account.

Time Position Orientation Groundspeed Altitude Reporting Facility
EDT Latitude Longitude Course Direction KTS MPH feet Rate Location/Type
10:59AM 40.8500 -74.0833 229° Southwest 165 190 1,000  Level New York TRACON
11:00AM 40.8167 -74.1333 229° Southwest 186 214 1,600 3,360 Climbing New York TRACON
11:03AM 40.8958 -74.3150 300° West 249 287 12,600 4,140 Climbing New York Center
11:04AM 40.9456 -74.3917 311° West 289 333 15,900 1,680 Climbing New York Center
11:05AM 41.0111 -74.4944 310° West 325 374 16,000 60 Climbing New York Center
11:06AM 41.0667 -74.5853 309° West 325 374 16,100  Climbing New York Center
11:07AM 41.1261 -74.6769 311° West 325 374 16,100  Level New York Center
11:08AM 41.1669 -74.7675 301° West 325 374 16,100 1,200 Level New York Center
11:09AM 41.2153 -74.8778 300° West 319 367 18,600 2,160 Climbing New York Center
11:10AM 41.2614 -74.9856 300° West 324 373 20,500 1,680 Climbing New York Center
11:11AM 41.3075 -75.0933 300° West 329 379 22,000 1,920 Climbing New York Center
11:12AM 41.3556 -75.2014 301° West 340 391 24,400 1,500 Climbing New York Center
11:13AM 41.4033 -75.3153 299° West 345 397 25,000 1,140 Climbing New York Center
11:14AM 41.4531 -75.4267 301° West 345 397 26,700 1,500 Climbing New York Center
11:15AM 41.4942 -75.5486 294° West 345 397 28,000 600 Climbing New York Center
11:16AM 41.5308 -75.6703 292° West 350 403 28,000  Level New York Center
11:17AM 41.5653 -75.7919 291° West 350 403 28,000  Level New York Center
11:18AM 41.5994 -75.9167 290° West 356 410 28,000  Level New York Center
11:19AM 41.6336 -76.0414 290° West 356 410 28,000  Level New York Center
11:20AM 41.6675 -76.1636 290° West 356 410 28,000  Level New York Center
11:21AM 41.7033 -76.2914 291° West 356 410 28,000  Level New York Center
11:22AM 41.7392 -76.4167 291° West 356 410 28,000  Level New York Center
11:23AM 41.7692 -76.5278 290° West 356 410 28,000  Level New York Center
11:24AM 41.8047 -76.6561 290° West 356 410 28,000  Level New York Center
11:25AM 41.8400 -76.7817 291° West 356 410 28,000  Level New York Center
11:26AM 41.8869 -76.9483 291° West 362 417 28,000  Level Cleveland Center
11:27AM 41.9208 -77.0756 290° West 362 417 28,000  Level Cleveland Center
11:28AM 41.9550 -77.2025 290° West 362 417 28,000  Level Cleveland Center
11:29AM 41.9911 -77.3342 290° West 362 417 28,000  Level Cleveland Center
11:30AM 42.0239 -77.4564 290° West 362 417 28,000  Level Cleveland Center
11:31AM 42.0367 -77.5867 278° West 355 409 28,000 -480 Level Cleveland Center
11:32AM 42.0403 -77.7147 272° West 345 397 27,100 -1,080 Descending Cleveland Center
11:33AM 42.0453 -77.8719 273° West 346 398 25,900 -1,080 Descending Cleveland Center
11:34AM 42.0489 -78.0008 272° West 346 398 24,900 -1,020 Descending Cleveland Center
11:35AM 42.0519 -78.1286 272° West 345 397 23,900 -1,020 Descending Cleveland Center
11:36AM 42.0544 -78.2514 272° West 341 392 22,900 -1,020 Descending Cleveland Center
11:37AM 42.0569 -78.3756 272° West 339 390 21,900 -1,020 Descending Cleveland Center
11:38AM 42.0600 -78.4975 272° West 333 383 20,900 -1,020 Descending Cleveland Center
11:39AM 42.0625 -78.6192 272° West 332 382 19,900 -1,080 Descending Cleveland Center
11:40AM 42.0653 -78.7619 272° West 323 372 18,700 -1,080 Descending Cleveland Center
11:41AM 42.0672 -78.8806 271° West 323 372 17,700 -1,020 Descending Cleveland Center
11:42AM 42.0694 -78.9975 272° West 319 367 16,700 -1,020 Descending Cleveland Center
11:43AM 42.0711 -79.1133 271° West 312 359 15,700 -1,260 Descending Cleveland Center
11:44AM 42.0725 -79.2278 271° West 307 353 14,200 -1,500 Descending Cleveland Center
11:45AM 42.0739 -79.3394 271° West 305 351 12,700 -1,500 Descending Cleveland Center
11:46AM 42.0767 -79.4475 272° West 295 339 11,200 -2,040 Descending Cleveland Center
11:47AM 42.0775 -79.5617 271° West 253 291 8,600 -2,340 Descending Cleveland Center
11:48AM 42.0778 -79.6464 270° West 240 276 6,500 -2,100 Descending Cleveland Center
11:49AM 42.0792 -79.7325 271° West 229 264 4,400 -1,620 Descending Cleveland Center
11:50AM 42.0797 -79.8267 270° West 236 272 3,200 -600 Descending Cleveland Center
11:51AM 42.0806 -79.9161 271° West 242 278 3,200  Level Cleveland Center
11:52AM 42.0867 -79.9936 276° West 213 245 3,200 -180 Level Cleveland Center
11:53AM 42.1014 -80.0606 287° West 183 211 2,900 -420 Descending Cleveland Center
11:55AM 42.1111 -80.1156 283° West 175 201 2,400 -540 Descending Cleveland Center
11:56AM 42.0667 -80.1667 270° West  Level FlightAware Approximate
12:03PM 42.0831 -80.1739 270° West  Level Estimated
12:04PM 42.0831 -80.1739 270° West  Level Estimated
12:05PM 42.0831 -80.1739 270° West  Level Estimated